Time;durP1;ratioP1;P1;durP2;ratioP2;P2;SDS_P1;SDS_P2;PMS_P1;PMS_P2;Temp;Humidity;BMP_temperature;BMP_pressure;BME280_temperature;BME280_humidity;BME280_pressure;Samples;Min_cycle;Max_cycle;Signal;HPM_P1;HPM_P2
2022/04/07 00:02:01;;;;;;;4.03;3.63;;;12.90;70.30;;;15.55;53.55;98963.03;5053056;28;20661;-58
2022/04/07 00:04:29;;;;;;;5.00;4.23;;;12.90;70.10;;;15.52;53.42;98950.25;5053335;28;20190;-57
2022/04/07 00:06:57;;;;;;;4.93;3.93;;;12.90;69.80;;;15.54;53.55;98957.97;5052753;28;20217;-60
2022/04/07 00:09:24;;;;;;;3.90;3.37;;;13.00;70.60;;;15.56;53.45;98942.63;5052217;28;20236;-60
2022/04/07 00:11:52;;;;;;;4.60;4.20;;;13.00;69.80;;;15.57;53.20;98944.19;5053502;28;20185;-59
2022/04/07 00:14:20;;;;;;;6.03;3.97;;;12.90;69.60;;;15.54;53.53;98931.47;5034338;28;20198;-60
2022/04/07 00:16:48;;;;;;;4.83;3.73;;;13.00;69.60;;;15.47;53.34;98933.50;5032853;28;20216;-58
2022/04/07 00:19:15;;;;;;;4.00;3.67;;;13.00;69.30;;;15.43;53.22;98919.91;5032966;28;20194;-60
2022/04/07 00:21:46;;;;;;;3.60;2.93;;;12.90;69.20;;;15.39;53.40;98900.25;5033214;28;20245;-60
2022/04/07 00:24:14;;;;;;;5.00;4.23;;;12.90;69.20;;;15.37;53.66;98906.88;5033055;28;20206;-57
2022/04/07 00:26:42;;;;;;;3.63;3.33;;;12.90;69.20;;;15.37;53.44;98909.50;5034705;28;20210;-59
2022/04/07 00:29:09;;;;;;;3.37;3.07;;;12.90;69.30;;;15.41;53.25;98892.84;5053276;28;20226;-58
2022/04/07 00:31:41;;;;;;;5.40;3.30;;;12.90;69.20;;;15.46;53.23;98900.09;5055719;28;20217;-57
2022/04/07 00:34:10;;;;;;;2.87;2.63;;;12.80;69.20;;;15.47;53.36;98886.59;5053246;28;20194;-58
2022/04/07 00:36:40;;;;;;;3.93;2.97;;;12.80;69.30;;;15.50;53.09;98872.81;5052716;28;20264;-59
2022/04/07 00:39:07;;;;;;;4.20;2.90;;;12.90;69.20;;;15.51;53.00;98884.22;5052840;28;20200;-60
2022/04/07 00:41:37;;;;;;;5.77;3.20;;;12.90;69.10;;;15.50;52.92;98877.31;5053013;28;20221;-58
2022/04/07 00:44:08;;;;;;;4.30;3.33;;;12.90;68.90;;;15.50;53.17;98874.66;5053137;28;20212;-59
2022/04/07 00:46:38;;;;;;;2.80;2.60;;;12.90;68.90;;;15.50;52.98;98858.75;5052864;28;20258;-59
2022/04/07 00:49:07;;;;;;;3.90;3.17;;;12.90;68.90;;;15.47;52.75;98864.56;5051819;28;20214;-60
2022/04/07 00:51:39;;;;;;;3.07;2.77;;;12.90;68.90;;;15.47;53.07;98853.97;5053164;28;20205;-59
2022/04/07 00:54:09;;;;;;;4.00;3.10;;;12.90;68.90;;;15.51;53.03;98845.25;5052137;28;20198;-58
2022/04/07 00:56:37;;;;;;;4.10;3.33;;;12.90;68.90;;;15.54;52.71;98834.16;5039376;28;20198;-59
2022/04/07 00:59:07;;;;;;;3.40;3.10;;;13.00;68.90;;;15.58;52.41;98839.72;5044259;28;20193;-59
2022/04/07 01:01:34;;;;;;;3.27;2.97;;;12.90;68.80;;;15.62;52.70;98824.13;5057245;28;20200;-58
2022/04/07 01:04:04;;;;;;;4.40;3.50;;;13.00;68.90;;;15.62;52.72;98819.59;5056934;28;20193;-58
2022/04/07 01:06:32;;;;;;;3.83;2.80;;;13.00;68.60;;;15.58;52.36;98815.84;5056777;28;20273;-60
2022/04/07 01:09:00;;;;;;;4.40;2.77;;;13.00;68.50;;;15.55;52.50;98808.41;5056793;28;20271;-57
2022/04/07 01:11:33;;;;;;;3.17;2.87;;;13.00;68.60;;;15.54;52.63;98812.13;5054663;28;20543;-58
2022/04/07 01:14:00;;;;;;;3.10;2.80;;;13.00;68.60;;;15.55;52.86;98808.41;5051905;28;20346;-56
2022/04/07 01:16:30;;;;;;;4.70;3.30;;;13.00;68.60;;;15.51;53.00;98807.31;5053760;28;20198;-59
2022/04/07 01:18:59;;;;;;;5.60;3.00;;;13.00;68.70;;;15.53;53.16;98805.22;5057393;28;20196;-57
2022/04/07 01:21:32;;;;;;;3.13;2.87;;;13.00;68.90;;;15.52;53.07;98799.09;5055234;28;20267;-58
2022/04/07 01:24:03;;;;;;;3.50;3.20;;;13.00;69.20;;;15.50;53.32;98801.22;5056140;28;20201;-58
2022/04/07 01:26:37;;;;;;;4.23;3.40;;;13.00;69.30;;;15.44;53.44;98796.09;5056241;28;20231;-57
2022/04/07 01:29:06;;;;;;;3.53;3.20;;;13.00;69.40;;;15.33;54.20;98781.97;5050253;28;20225;-57
2022/04/07 01:31:34;;;;;;;4.30;3.10;;;13.00;70.10;;;15.30;54.56;98774.53;5036957;28;20221;-58
2022/04/07 01:34:05;;;;;;;4.30;3.30;;;12.90;70.10;;;15.29;54.45;98772.91;5036434;28;20209;-58
2022/04/07 01:36:38;;;;;;;3.83;3.53;;;12.90;70.40;;;15.26;54.45;98756.75;5036284;28;20193;-60
2022/04/07 01:39:07;;;;;;;3.40;3.10;;;12.90;70.70;;;15.28;54.89;98765.22;5036489;28;20217;-57
2022/04/07 01:41:40;;;;;;;4.33;3.93;;;12.90;70.50;;;15.27;54.40;98753.03;5036016;28;20587;-59
2022/04/07 01:44:09;;;;;;;3.90;3.50;;;12.80;70.30;;;15.29;54.35;98750.91;5036129;28;20222;-59
2022/04/07 01:46:39;;;;;;;4.77;3.60;;;12.80;70.30;;;15.31;54.33;98739.00;5036947;28;20198;-58
2022/04/07 01:49:08;;;;;;;3.63;3.33;;;12.80;70.30;;;15.34;54.16;98727.09;5035827;28;20215;-57
2022/04/07 01:51:37;;;;;;;3.97;3.50;;;12.80;70.90;;;15.31;53.98;98723.09;5036129;28;20201;-57
2022/04/07 01:54:11;;;;;;;3.90;3.40;;;12.80;69.90;;;15.31;53.85;98722.28;5036128;28;20190;-59
2022/04/07 01:56:43;;;;;;;4.07;3.47;;;12.80;69.70;;;15.29;53.53;98713.78;5035591;28;20201;-60
2022/04/07 01:59:12;;;;;;;5.30;3.83;;;12.80;69.50;;;15.27;53.85;98710.59;5045207;28;20198;-59
2022/04/07 02:01:39;;;;;;;3.80;3.50;;;12.80;69.60;;;15.25;53.89;98707.41;5055553;28;20190;-58
2022/04/07 02:04:07;;;;;;;3.50;3.20;;;12.80;69.40;;;15.28;53.81;98707.72;5054549;28;20194;-58
2022/04/07 02:06:34;;;;;;;4.10;3.70;;;12.90;69.60;;;15.28;53.67;98697.13;5055272;28;20186;-60
2022/04/07 02:09:02;;;;;;;3.57;3.30;;;12.80;69.10;;;15.32;53.62;98692.09;5055250;28;20213;-60
2022/04/07 02:11:32;;;;;;;4.10;3.77;;;12.90;69.30;;;15.25;53.52;98680.91;5055567;28;20257;-60
2022/04/07 02:14:00;;;;;;;3.97;3.07;;;12.90;69.00;;;15.29;53.21;98682.00;5054635;28;20194;-58
2022/04/07 02:16:30;;;;;;;3.70;3.40;;;12.90;68.90;;;15.32;53.42;98679.66;5055710;28;20273;-58
2022/04/07 02:18:58;;;;;;;5.20;3.20;;;12.90;68.90;;;15.34;53.62;98668.78;5056226;28;20222;-59
2022/04/07 02:21:25;;;;;;;4.20;3.50;;;12.90;68.70;;;15.30;53.26;98671.16;5035839;28;20186;-59
2022/04/07 02:23:52;;;;;;;5.07;3.50;;;12.80;68.40;;;15.35;53.40;98670.38;5036073;28;20214;-57
2022/04/07 02:26:20;;;;;;;5.30;3.00;;;12.90;68.60;;;15.39;53.06;98650.25;5037714;28;20191;-60
2022/04/07 02:28:47;;;;;;;3.37;3.00;;;12.90;68.60;;;15.45;52.93;98657.22;5046703;28;20240;-59
2022/04/07 02:31:16;;;;;;;5.30;3.30;;;12.90;68.30;;;15.43;52.59;98661.94;5055075;28;20274;-58
2022/04/07 02:33:44;;;;;;;4.00;3.30;;;12.90;68.00;;;15.42;52.22;98657.69;5047489;28;20197;-60
2022/04/07 02:36:13;;;;;;;2.90;2.70;;;12.90;68.00;;;15.41;52.85;98648.13;5034622;28;20191;-59
2022/04/07 02:38:41;;;;;;;3.63;3.27;;;12.90;68.40;;;15.39;52.43;98637.00;5034755;28;20211;-58
2022/04/07 02:41:08;;;;;;;3.87;2.97;;;12.90;67.80;;;15.37;52.74;98636.47;5034957;28;20269;-59
2022/04/07 02:43:35;;;;;;;2.83;2.50;;;13.00;68.00;;;15.42;52.59;98632.00;5044133;28;20205;-59
2022/04/07 02:46:03;;;;;;;3.27;3.03;;;13.00;68.00;;;15.47;52.53;98634.69;5055322;28;20220;-59
2022/04/07 02:48:32;;;;;;;3.23;2.70;;;13.00;68.00;;;15.54;52.34;98632.63;5054724;28;20336;-58
2022/04/07 02:51:01;;;;;;;2.60;2.40;;;13.00;67.90;;;15.59;52.55;98629.97;5054999;28;20194;-59
2022/04/07 02:53:28;;;;;;;2.60;2.40;;;13.00;68.10;;;15.62;52.36;98607.44;5054167;28;20256;-60
2022/04/07 02:55:56;;;;;;;3.17;2.87;;;13.00;68.00;;;15.57;52.30;98610.84;5055690;28;20194;-57
2022/04/07 02:58:23;;;;;;;2.80;2.60;;;13.00;68.00;;;15.63;52.22;98609.03;5043646;28;20297;-59
2022/04/07 03:00:50;;;;;;;3.17;2.80;;;13.10;68.10;;;15.65;52.17;98616.72;5055092;28;20194;-59
2022/04/07 03:03:17;;;;;;;2.97;2.73;;;13.00;68.00;;;15.64;52.37;98605.34;5054674;28;20190;-60
2022/04/07 03:05:46;;;;;;;2.93;2.67;;;13.10;68.20;;;15.64;52.26;98610.66;5055119;28;20678;-59
2022/04/07 03:08:14;;;;;;;2.90;2.70;;;13.00;68.30;;;15.64;52.53;98610.66;5054365;28;20296;-59
2022/04/07 03:10:42;;;;;;;4.67;3.10;;;13.00;68.50;;;15.63;52.89;98603.72;5054606;28;20190;-60
2022/04/07 03:13:09;;;;;;;3.87;3.00;;;13.00;69.20;;;15.53;53.35;98603.69;5055984;28;20200;-58
2022/04/07 03:15:37;;;;;;;3.10;2.60;;;12.90;69.70;;;15.44;53.74;98602.56;5040986;28;20202;-57
2022/04/07 03:18:04;;;;;;;2.43;2.13;;;12.90;69.80;;;15.39;54.04;98586.63;5034035;28;20690;-59
2022/04/07 03:20:31;;;;;;;3.17;2.83;;;12.90;70.20;;;15.31;54.71;98589.75;5032828;28;20182;-59
2022/04/07 03:23:00;;;;;;;3.00;2.80;;;12.90;71.20;;;15.19;55.24;98579.38;5034958;28;20198;-59
2022/04/07 03:25:27;;;;;;;3.57;2.93;;;12.80;71.50;;;15.11;55.57;98585.16;5034496;28;20211;-57
2022/04/07 03:27:54;;;;;;;3.97;3.60;;;12.70;72.10;;;14.98;56.29;98574.22;5032620;28;20293;-58
2022/04/07 03:30:22;;;;;;;3.67;3.30;;;12.70;72.60;;;14.86;56.98;98569.91;5053191;28;20224;-60
2022/04/07 03:32:49;;;;;;;3.10;2.80;;;12.60;72.70;;;14.77;57.45;98562.69;5052298;28;20197;-60
2022/04/07 03:35:17;;;;;;;3.20;3.00;;;12.60;73.20;;;14.75;57.49;98556.88;5053748;28;20190;-59
2022/04/07 03:37:44;;;;;;;3.57;3.23;;;12.50;73.20;;;14.77;57.09;98547.63;5054758;28;20593;-59
2022/04/07 03:40:13;;;;;;;3.73;2.63;;;12.50;73.50;;;14.85;56.91;98552.44;5055061;28;20178;-58
2022/04/07 03:42:42;;;;;;;5.10;3.53;;;12.40;73.60;;;14.93;56.83;98567.84;5053912;28;20281;-57
2022/04/07 03:45:10;;;;;;;3.80;3.10;;;12.40;73.90;;;14.93;57.05;98565.19;5053456;28;20194;-59
2022/04/07 03:47:37;;;;;;;3.70;3.40;;;12.40;74.30;;;14.93;57.18;98567.84;5051900;28;20214;-60
2022/04/07 03:50:06;;;;;;;3.97;3.13;;;12.40;74.60;;;14.91;57.00;98562.00;5033523;28;20253;-58
2022/04/07 03:52:33;;;;;;;3.77;3.47;;;12.40;74.70;;;14.94;57.14;98542.16;5033393;28;20674;-57
2022/04/07 03:55:00;;;;;;;3.90;3.60;;;12.40;74.70;;;14.91;57.14;98543.47;5033551;28;20190;-59
2022/04/07 03:57:30;;;;;;;4.13;3.53;;;12.40;74.50;;;14.91;57.02;98537.34;5033122;28;20683;-59
2022/04/07 03:59:57;;;;;;;3.43;3.00;;;12.40;74.40;;;14.89;57.08;98534.97;5049035;28;20674;-56
2022/04/07 04:02:25;;;;;;;4.40;2.97;;;12.40;74.10;;;14.90;56.78;98525.19;5053341;28;20269;-58
2022/04/07 04:04:54;;;;;;;3.87;2.80;;;12.40;74.70;;;14.88;56.72;98525.41;5051949;28;20204;-59
2022/04/07 04:07:21;;;;;;;3.37;2.67;;;12.40;73.80;;;14.89;56.89;98523.56;5052846;28;20617;-58
2022/04/07 04:09:49;;;;;;;6.80;2.83;;;12.40;73.80;;;14.89;56.69;98524.38;5053114;28;20221;-59
2022/04/07 04:12:16;;;;;;;3.50;2.43;;;12.40;73.80;;;14.83;56.70;98517.44;5053623;28;20514;-60
2022/04/07 04:14:45;;;;;;;2.23;1.77;;;12.40;73.50;;;14.84;56.49;98511.09;5053518;28;20194;-58
2022/04/07 04:17:12;;;;;;;2.93;2.13;;;12.30;73.30;;;14.85;56.40;98512.72;5052546;28;20216;-59
2022/04/07 04:19:39;;;;;;;3.40;2.27;;;12.30;73.20;;;14.88;56.01;98504.22;5053021;28;20222;-59
2022/04/07 04:22:07;;;;;;;1.90;1.73;;;12.30;73.10;;;14.89;56.27;98497.88;5046664;28;20231;-59
2022/04/07 04:24:34;;;;;;;3.30;2.23;;;12.30;73.30;;;14.91;56.29;98495.78;5033237;28;20203;-59
2022/04/07 04:27:01;;;;;;;3.67;1.90;;;12.30;73.60;;;14.95;56.07;98482.03;5032989;28;20242;-58
2022/04/07 04:29:29;;;;;;;2.97;1.70;;;12.30;73.50;;;14.95;55.99;98469.59;5043389;28;20221;-59
2022/04/07 04:31:57;;;;;;;5.80;2.33;;;12.30;73.30;;;14.95;55.89;98458.19;5059458;28;20189;-58
2022/04/07 04:34:24;;;;;;;3.30;2.17;;;12.30;73.00;;;14.93;55.64;98465.59;5060030;28;20217;-60
2022/04/07 04:36:54;;;;;;;2.83;1.73;;;12.30;72.90;;;14.88;55.65;98453.91;5059288;28;20206;-58
2022/04/07 04:39:21;;;;;;;2.13;1.77;;;12.30;72.90;;;14.82;56.06;98444.34;5058300;28;20194;-60
2022/04/07 04:41:48;;;;;;;2.60;1.90;;;12.30;72.90;;;14.73;56.30;98435.31;5059248;28;20212;-59
2022/04/07 04:44:16;;;;;;;2.30;1.67;;;12.30;72.80;;;14.68;56.39;98427.34;5059408;28;20221;-59
2022/04/07 04:46:43;;;;;;;3.73;1.90;;;12.30;72.90;;;14.64;56.44;98431.53;5059228;28;20229;-59
2022/04/07 04:49:13;;;;;;;4.33;2.03;;;12.20;72.70;;;14.60;56.59;98419.88;5059753;28;20216;-59
2022/04/07 04:51:40;;;;;;;3.03;1.97;;;12.20;72.80;;;14.57;56.70;98420.38;5059912;28;20205;-58
2022/04/07 04:54:07;;;;;;;3.47;2.00;;;12.20;73.00;;;14.55;56.63;98406.63;5059448;28;20189;-58
2022/04/07 04:56:34;;;;;;;2.77;1.90;;;12.20;73.00;;;14.56;56.76;98410.88;5043839;28;20205;-57
2022/04/07 04:59:02;;;;;;;2.40;1.90;;;12.20;73.00;;;14.56;56.54;98402.94;5047615;28;20236;-58
2022/04/07 05:01:29;;;;;;;2.53;2.30;;;12.20;73.10;;;14.57;56.91;98393.91;5060110;28;20295;-58
2022/04/07 05:03:56;;;;;;;2.37;1.87;;;12.20;73.20;;;14.61;56.75;98388.91;5060201;28;20198;-57
2022/04/07 05:06:25;;;;;;;4.00;2.00;;;12.20;73.20;;;14.54;56.76;98393.66;5059434;28;20272;-59
2022/04/07 05:08:53;;;;;;;2.20;2.00;;;12.10;73.20;;;14.50;57.01;98377.47;5060221;28;20202;-58
2022/04/07 05:11:21;;;;;;;3.23;1.90;;;12.20;74.10;;;14.51;56.95;98379.06;5058354;28;20560;-58
2022/04/07 05:13:48;;;;;;;2.33;2.10;;;12.10;73.30;;;14.47;57.13;98362.13;5059615;28;20528;-61
2022/04/07 05:16:15;;;;;;;5.80;2.13;;;12.10;73.40;;;14.47;57.25;98370.06;5058521;28;20490;-59
2022/04/07 05:18:46;;;;;;;5.83;2.33;;;12.10;73.50;;;14.54;56.92;98356.59;5060677;28;20218;-59
2022/04/07 05:21:14;;;;;;;2.50;2.00;;;12.10;73.50;;;14.52;57.06;98353.41;5058874;28;20202;-59
2022/04/07 05:23:44;;;;;;;3.53;2.13;;;12.10;74.20;;;14.53;56.84;98362.94;5059530;28;20193;-59
2022/04/07 05:26:14;;;;;;;3.73;1.93;;;12.10;73.60;;;14.49;57.08;98349.44;5058759;28;20190;-57
2022/04/07 05:28:42;;;;;;;4.13;1.93;;;12.10;73.50;;;14.50;57.03;98351.00;5058268;28;20274;-59
2022/04/07 05:31:10;;;;;;;4.07;2.17;;;12.10;73.70;;;14.50;57.26;98339.63;5059077;28;20232;-59
2022/04/07 05:33:38;;;;;;;3.60;2.30;;;12.10;73.80;;;14.44;57.29;98336.16;5059051;28;20220;-59
2022/04/07 05:36:06;;;;;;;5.50;2.93;;;12.10;73.90;;;14.43;57.36;98334.56;5058751;28;20213;-58
2022/04/07 05:38:34;;;;;;;2.70;1.90;;;12.10;73.90;;;14.51;57.44;98326.13;5059420;28;20224;-59
2022/04/07 05:41:03;;;;;;;4.43;2.10;;;12.10;73.90;;;14.55;57.15;98321.91;5059181;28;20260;-60
2022/04/07 05:43:30;;;;;;;3.27;2.13;;;12.10;73.80;;;14.58;56.78;98315.28;5055780;28;20196;-60
2022/04/07 05:45:57;;;;;;;4.47;2.27;;;12.10;73.50;;;14.55;57.07;98303.38;5040868;28;20209;-58
2022/04/07 05:48:25;;;;;;;5.13;2.10;;;12.20;73.60;;;14.51;56.76;98304.16;5035255;28;20211;-57
2022/04/07 05:50:52;;;;;;;4.80;2.73;;;12.10;73.40;;;14.49;56.90;98287.75;5034871;28;20598;-60
2022/04/07 05:53:20;;;;;;;8.00;2.43;;;12.10;73.30;;;14.44;56.74;98285.88;5035768;28;20191;-60
2022/04/07 05:55:47;;;;;;;4.10;2.30;;;12.10;73.10;;;14.44;56.94;98271.84;5035962;28;20615;-58
2022/04/07 05:58:16;;;;;;;4.73;2.50;;;12.10;73.00;;;14.55;56.71;98274.25;5036705;28;20210;-59
2022/04/07 06:00:45;;;;;;;4.60;2.90;;;12.10;73.00;;;14.63;56.51;98268.47;5055351;28;20222;-59
2022/04/07 06:03:12;;;;;;;6.10;2.27;;;12.20;72.90;;;14.72;56.19;98263.44;5036109;28;20221;-58
2022/04/07 06:05:40;;;;;;;4.67;2.30;;;12.20;72.80;;;14.84;55.83;98256.84;5035537;28;20574;-60
2022/04/07 06:08:07;;;;;;;5.57;2.50;;;12.30;72.80;;;14.89;55.59;98248.91;5037407;28;20222;-59
2022/04/07 06:10:36;;;;;;;3.90;2.40;;;12.30;72.10;;;15.00;55.63;98249.69;5035050;28;20229;-58
2022/04/07 06:13:03;;;;;;;4.97;2.10;;;12.40;72.10;;;15.06;54.88;98253.16;5035448;28;20182;-58
2022/04/07 06:15:32;;;;;;;4.80;2.33;;;12.40;71.60;;;15.06;54.53;98239.91;5035225;28;20214;-58
2022/04/07 06:18:00;;;;;;;7.30;2.53;;;12.50;71.00;;;15.08;54.24;98227.19;5036072;28;20675;-59
2022/04/07 06:20:27;;;;;;;6.70;2.43;;;12.50;70.50;;;15.10;54.26;98217.13;5035951;28;20199;-60
2022/04/07 06:22:54;;;;;;;8.93;2.60;;;12.60;70.10;;;15.02;54.13;98231.72;5035157;28;20205;-60
2022/04/07 06:25:21;;;;;;;6.13;2.63;;;12.60;69.70;;;15.07;54.45;98215.00;5035333;28;20221;-60
2022/04/07 06:27:49;;;;;;;7.30;2.50;;;12.60;70.00;;;15.03;54.70;98195.38;5034973;28;20238;-59
2022/04/07 06:30:18;;;;;;;8.73;2.57;;;12.60;70.20;;;15.07;54.69;98185.88;5053504;28;20218;-56
2022/04/07 06:32:49;;;;;;;5.20;2.50;;;12.70;70.40;;;15.11;54.48;98176.31;5055449;28;20221;-59
2022/04/07 06:35:17;;;;;;;5.73;2.40;;;12.70;70.60;;;15.14;54.67;98160.66;5046342;28;20191;-57
2022/04/07 06:37:49;;;;;;;5.73;2.80;;;12.70;70.50;;;15.11;54.36;98155.13;5034948;28;20237;-57
2022/04/07 06:40:20;;;;;;;5.60;2.87;;;12.70;70.30;;;15.13;54.35;98147.69;5036150;28;20186;-57
2022/04/07 06:42:48;;;;;;;8.23;2.70;;;12.70;70.00;;;15.12;54.15;98138.94;5036276;28;20191;-59
2022/04/07 06:45:22;;;;;;;4.83;2.77;;;12.70;69.90;;;15.16;54.52;98136.56;5036692;28;20220;-59
2022/04/07 06:47:51;;;;;;;5.13;2.60;;;12.70;70.20;;;15.19;54.41;98136.03;5034907;28;20552;-59
2022/04/07 06:50:21;;;;;;;5.40;2.60;;;12.70;70.40;;;15.16;54.36;98120.69;5034669;28;20328;-57
2022/04/07 06:52:48;;;;;;;6.57;3.30;;;12.70;70.40;;;15.18;54.84;98126.50;5035550;28;20619;-58
2022/04/07 06:55:16;;;;;;;4.90;3.13;;;12.70;70.50;;;15.12;54.46;98119.63;5033784;28;20536;-60
2022/04/07 06:57:51;;;;;;;6.20;3.20;;;12.80;70.00;;;15.10;54.85;98103.19;5035087;28;20638;-60
2022/04/07 07:00:20;;;;;;;6.13;3.20;;;12.80;70.30;;;15.05;55.31;98109.28;5052545;28;20208;-59
2022/04/07 07:02:48;;;;;;;4.33;3.20;;;12.70;71.20;;;14.95;55.54;98093.44;5055409;28;20272;-60
2022/04/07 07:05:18;;;;;;;6.00;2.70;;;12.70;71.30;;;14.88;56.18;98082.31;5053912;28;20190;-56
2022/04/07 07:07:47;;;;;;;6.33;2.80;;;12.70;71.60;;;14.79;55.92;98071.47;5053579;28;20300;-57
2022/04/07 07:10:20;;;;;;;4.97;3.33;;;12.70;71.60;;;14.77;56.39;98059.56;5055845;28;20217;-59
2022/04/07 07:12:48;;;;;;;3.60;2.90;;;12.70;71.90;;;14.72;56.46;98047.13;5054957;28;20200;-59
2022/04/07 07:15:15;;;;;;;6.40;2.73;;;12.60;71.70;;;14.70;56.24;98033.34;5054879;28;20244;-58
2022/04/07 07:17:43;;;;;;;6.80;2.90;;;12.60;71.70;;;14.57;56.76;98044.47;5054289;28;20658;-57
2022/04/07 07:20:12;;;;;;;4.83;2.43;;;12.50;71.80;;;14.56;56.75;98029.69;5054682;28;20591;-61
2022/04/07 07:22:42;;;;;;;3.40;2.57;;;12.50;71.90;;;14.52;56.84;98020.69;5055101;28;20722;-60
2022/04/07 07:25:11;;;;;;;4.57;4.00;;;12.50;71.90;;;14.52;57.06;98019.88;5056374;28;20296;-58
2022/04/07 07:27:40;;;;;;;7.73;3.10;;;12.50;72.20;;;14.44;57.22;98007.97;5055563;28;20213;-58
2022/04/07 07:30:10;;;;;;;6.23;2.23;;;12.40;71.70;;;14.40;57.31;97996.34;5054176;28;20209;-60
2022/04/07 07:32:39;;;;;;;4.50;2.10;;;12.40;72.30;;;14.43;57.69;97989.72;5054629;28;20278;-59
2022/04/07 07:35:09;;;;;;;5.23;2.37;;;12.40;72.50;;;14.36;58.33;97979.41;5054816;28;20201;-57
2022/04/07 07:37:46;;;;;;;5.83;2.40;;;12.40;73.80;;;14.29;58.74;97983.38;5053817;28;20220;-57
2022/04/07 07:40:15;;;;;;;5.87;2.40;;;12.30;74.60;;;14.20;58.99;97991.03;5054355;28;20344;-58
2022/04/07 07:42:42;;;;;;;5.27;2.40;;;12.30;74.10;;;14.19;59.00;97973.59;5052477;28;20598;-57
2022/04/07 07:45:11;;;;;;;5.87;2.50;;;12.20;74.40;;;14.17;59.38;97975.69;5054397;28;20216;-58
2022/04/07 07:47:55;;;;;;;6.77;2.70;;;12.20;75.00;;;14.18;59.61;97972.00;5054064;28;20221;-59
2022/04/07 07:50:23;;;;;;;4.10;2.63;;;12.10;75.30;;;14.13;59.91;97975.44;5054393;28;20213;-61
2022/04/07 07:52:51;;;;;;;5.37;2.50;;;12.10;75.80;;;14.18;59.86;97966.69;5054395;28;20216;-57
2022/04/07 07:55:19;;;;;;;4.90;3.13;;;12.00;76.10;;;14.20;60.25;97964.56;5050805;28;20233;-60
2022/04/07 07:57:47;;;;;;;5.13;2.53;;;12.00;76.70;;;14.27;59.54;97973.03;5039716;28;20293;-58
2022/04/07 08:00:16;;;;;;;3.90;2.97;;;12.00;76.70;;;14.35;59.87;98004.28;5040994;28;20201;-59
2022/04/07 08:02:44;;;;;;;5.13;2.33;;;12.00;77.30;;;14.40;59.94;98053.78;5044138;28;20554;-59
2022/04/07 08:05:13;;;;;;;3.53;2.57;;;12.00;77.60;;;14.43;59.74;98100.88;5052464;28;20593;-59
2022/04/07 08:07:42;;;;;;;1.90;1.77;;;12.00;77.60;;;14.40;57.12;98102.22;5033294;28;20241;-59
2022/04/07 08:10:10;;;;;;;4.43;0.90;;;11.90;71.70;;;14.19;54.28;98111.16;5038518;28;20225;-57
2022/04/07 08:12:40;;;;;;;0.70;0.70;;;11.70;67.70;;;13.94;54.15;98097.88;5035292;28;20602;-59
2022/04/07 08:15:09;;;;;;;2.70;1.10;;;11.50;68.20;;;13.65;53.50;98107.28;5038172;28;20204;-61
2022/04/07 08:17:37;;;;;;;2.30;0.97;;;11.10;67.80;;;13.37;53.81;98103.22;5039574;28;20289;-60
2022/04/07 08:20:09;;;;;;;1.47;0.80;;;10.80;68.40;;;13.14;54.09;98096.50;5037376;28;20559;-57
2022/04/07 08:22:37;;;;;;;2.17;0.80;;;10.60;69.30;;;12.96;54.66;98091.59;5040213;28;20647;-60
2022/04/07 08:25:05;;;;;;;1.20;0.70;;;10.30;70.20;;;12.83;54.83;98106.06;5038259;28;20202;-62
2022/04/07 08:27:32;;;;;;;3.60;1.20;;;10.20;70.80;;;12.74;55.36;98101.50;5038498;28;20210;-60
2022/04/07 08:30:02;;;;;;;1.60;0.80;;;10.10;71.40;;;12.64;55.36;98096.16;5038074;28;20206;-60
2022/04/07 08:32:33;;;;;;;1.57;1.00;;;9.90;72.70;;;12.57;55.60;98082.38;5040076;28;20201;-58
2022/04/07 08:35:01;;;;;;;2.27;0.83;;;9.90;73.30;;;12.52;55.84;98090.25;5038647;28;20703;-60
2022/04/07 08:37:28;;;;;;;2.70;1.03;;;9.80;73.50;;;12.46;55.88;98088.59;5038903;28;20244;-59
2022/04/07 08:39:56;;;;;;;0.97;0.63;;;9.70;73.50;;;12.45;56.11;98092.31;5042440;28;20667;-60
2022/04/07 08:42:26;;;;;;;2.00;1.73;;;9.70;73.70;;;12.45;56.18;98079.91;5034487;28;20273;-58
2022/04/07 08:44:54;;;;;;;2.63;1.40;;;9.70;74.80;;;12.48;55.94;98081.25;5042180;28;20214;-60
2022/04/07 08:47:24;;;;;;;1.47;0.70;;;9.70;74.10;;;12.42;55.86;98076.97;5039012;28;20564;-61
2022/04/07 08:49:52;;;;;;;2.53;0.90;;;9.60;73.90;;;12.36;55.82;98070.09;5039866;28;20625;-60
2022/04/07 08:52:19;;;;;;;2.10;0.93;;;9.60;73.50;;;12.31;55.56;98070.84;5041120;28;20212;-59
2022/04/07 08:54:47;;;;;;;1.77;0.80;;;9.60;73.20;;;12.27;55.44;98074.19;5041559;28;20216;-60
2022/04/07 08:57:18;;;;;;;1.23;0.57;;;9.60;73.30;;;12.21;55.61;98058.34;5037883;28;20228;-60
2022/04/07 08:59:45;;;;;;;0.80;0.80;;;9.50;73.00;;;12.19;56.14;98062.28;5050805;28;20204;-60
2022/04/07 09:02:13;;;;;;;1.80;0.80;;;9.50;73.30;;;12.23;56.07;98056.25;5042004;28;20738;-59
2022/04/07 09:04:41;;;;;;;0.70;0.70;;;9.50;74.10;;;12.26;55.52;98048.88;5048520;28;20293;-59
2022/04/07 09:07:13;;;;;;;0.50;0.50;;;9.50;73.30;;;12.29;55.86;98022.03;5038404;28;20580;-58
2022/04/07 09:09:41;;;;;;;2.03;1.27;;;9.50;73.20;;;12.42;55.78;98027.66;5041699;28;20614;-60
2022/04/07 09:12:10;;;;;;;1.03;0.80;;;9.50;73.80;;;12.53;55.40;98018.75;5046540;28;20214;-60
2022/04/07 09:14:38;;;;;;;2.67;1.63;;;9.60;73.70;;;12.61;55.14;98030.69;5048029;28;20619;-59
2022/04/07 09:17:05;;;;;;;2.10;0.87;;;9.60;73.60;;;12.61;55.23;98038.59;5048058;28;20238;-60
2022/04/07 09:19:35;;;;;;;0.90;0.90;;;9.70;73.50;;;12.65;55.26;98048.38;5044654;28;20277;-59
2022/04/07 09:22:10;;;;;;;1.93;0.90;;;9.70;73.50;;;12.64;54.92;98060.00;5052864;28;20197;-60
2022/04/07 09:24:40;;;;;;;1.40;0.80;;;9.80;73.40;;;12.66;55.18;98038.63;5048341;28;20202;-59
2022/04/07 09:27:10;;;;;;;1.30;0.90;;;9.70;73.30;;;12.69;55.01;98059.25;5046455;28;20276;-59
2022/04/07 09:29:39;;;;;;;1.17;0.73;;;9.80;73.40;;;12.69;54.84;98064.53;5044414;28;20300;-60
2022/04/07 09:32:19;;;;;;;0.73;0.73;;;9.80;72.60;;;12.62;54.71;98063.94;5037632;28;20248;-60
2022/04/07 09:34:53;;;;;;;1.10;0.90;;;9.80;72.60;;;12.60;54.64;98055.50;5037698;28;20213;-61
2022/04/07 09:37:24;;;;;;;1.90;0.87;;;9.70;72.90;;;12.58;54.74;98036.47;5038184;28;20228;-60
2022/04/07 09:40:05;;;;;;;1.50;1.10;;;9.70;72.50;;;12.48;54.70;98065.44;5039198;28;20221;-61
2022/04/07 09:42:34;;;;;;;1.83;1.30;;;9.70;72.30;;;12.41;53.97;98056.94;5038146;28;20276;-60
2022/04/07 09:45:04;;;;;;;1.10;1.00;;;9.60;71.40;;;12.30;54.61;98045.50;5037599;28;20251;-60
2022/04/07 09:47:36;;;;;;;1.10;0.97;;;9.60;71.80;;;12.19;54.49;98039.34;5031924;28;20225;-61
2022/04/07 09:50:05;;;;;;;0.80;0.80;;;9.50;71.60;;;12.11;55.05;98037.16;5029922;28;21442;-62
2022/04/07 09:52:38;;;;;;;1.63;1.30;;;9.50;71.90;;;12.05;54.93;98043.44;5028384;28;20220;-65
2022/04/07 09:55:08;;;;;;;0.70;0.70;;;9.40;72.00;;;12.00;54.97;98037.34;5032622;28;20235;-60
2022/04/07 09:57:38;;;;;;;0.80;0.50;;;9.40;72.10;;;11.95;54.78;98016.19;5040491;28;20709;-62
2022/04/07 10:00:07;;;;;;;0.40;0.40;;;9.20;71.60;;;11.87;55.32;98001.63;5038853;28;20209;-63
2022/04/07 10:02:35;;;;;;;1.83;1.13;;;9.20;72.00;;;11.85;55.29;97985.28;5038252;28;20221;-62
2022/04/07 10:05:03;;;;;;;1.13;0.70;;;9.20;72.20;;;11.77;54.77;97977.81;5038115;28;20579;-60
2022/04/07 10:07:33;;;;;;;1.17;0.73;;;9.10;71.80;;;11.73;55.42;97968.84;5034312;28;20579;-62
2022/04/07 10:10:02;;;;;;;0.43;0.40;;;9.10;72.10;;;11.64;55.22;97946.59;5034843;28;20718;-61
2022/04/07 10:12:33;;;;;;;1.93;1.07;;;9.10;71.70;;;11.55;55.67;97963.91;5037408;28;20344;-64
2022/04/07 10:15:03;;;;;;;3.03;0.70;;;9.10;71.90;;;11.51;55.70;97941.72;5039106;28;20182;-64
2022/04/07 10:17:31;;;;;;;1.00;0.60;;;9.00;71.70;;;11.49;55.88;97938.53;5035107;28;20238;-60
2022/04/07 10:20:03;;;;;;;1.03;0.93;;;9.00;71.70;;;11.46;55.99;97954.84;5037741;28;20198;-62
2022/04/07 10:23:00;;;;;;;1.40;0.80;;;9.00;71.90;;;11.47;56.12;97930.09;5040005;28;20208;-61
2022/04/07 10:25:30;;;;;;;0.90;0.60;;;9.00;72.20;;;11.47;55.75;97927.47;5036585;28;20200;-61
2022/04/07 10:28:04;;;;;;;1.27;0.70;;;9.00;71.80;;;11.44;55.23;97926.13;5033476;28;20225;-61